Time;durP1;ratioP1;P1;durP2;ratioP2;P2;SDS_P1;SDS_P2;PMS_P1;PMS_P2;Temp;Humidity;BMP_temperature;BMP_pressure;BME280_temperature;BME280_humidity;BME280_pressure;Samples;Min_cycle;Max_cycle;Signal;HPM_P1;HPM_P2
2023/01/16 00:02:22;;;;;;;4.40;3.47;;;4.90;99.90;;;;;;5031980;28;20493;-61
2023/01/16 00:04:48;;;;;;;5.00;4.37;;;4.90;99.90;;;;;;5033687;28;20652;-61
2023/01/16 00:07:15;;;;;;;6.07;3.83;;;4.90;99.90;;;;;;5026529;28;20192;-60
2023/01/16 00:09:42;;;;;;;4.80;4.03;;;5.00;99.90;;;;;;5033850;28;20226;-60
2023/01/16 00:12:09;;;;;;;6.53;3.83;;;5.00;99.90;;;;;;5031080;28;20321;-60
2023/01/16 00:14:35;;;;;;;3.93;3.13;;;4.90;99.90;;;;;;5035471;28;20590;-60
2023/01/16 00:17:02;;;;;;;3.90;3.10;;;4.80;99.90;;;;;;5033279;28;20212;-60
2023/01/16 00:19:29;;;;;;;4.27;2.70;;;4.90;99.90;;;;;;5033681;28;20210;-60
2023/01/16 00:21:55;;;;;;;2.57;2.33;;;4.80;99.90;;;;;;5033686;28;20279;-60
2023/01/16 00:24:22;;;;;;;3.63;2.33;;;4.80;99.90;;;;;;5032827;28;20533;-60
2023/01/16 00:26:51;;;;;;;4.07;2.43;;;4.90;99.90;;;;;;5036062;28;20287;-61
2023/01/16 00:29:17;;;;;;;3.53;2.33;;;4.80;99.90;;;;;;5017449;28;20292;-59
2023/01/16 00:31:44;;;;;;;3.50;1.70;;;4.80;99.90;;;;;;5036225;28;20206;-59
2023/01/16 00:34:11;;;;;;;3.07;1.50;;;4.80;99.90;;;;;;5034726;28;20219;-60
2023/01/16 00:36:39;;;;;;;5.53;1.80;;;4.90;99.90;;;;;;5035573;28;20958;-59
2023/01/16 00:39:06;;;;;;;2.03;1.50;;;4.80;99.90;;;;;;5034251;28;20301;-60
2023/01/16 00:41:33;;;;;;;3.37;1.40;;;4.90;99.90;;;;;;5035300;28;20554;-59
2023/01/16 00:44:00;;;;;;;2.60;1.30;;;4.80;99.90;;;;;;5035207;28;20239;-60
2023/01/16 00:46:29;;;;;;;1.97;1.20;;;4.80;99.90;;;;;;5035153;28;20653;-60
2023/01/16 00:48:56;;;;;;;2.83;1.57;;;4.90;99.90;;;;;;5034732;28;20203;-59
2023/01/16 00:51:23;;;;;;;2.60;1.40;;;4.80;99.90;;;;;;5032550;28;20206;-60
2023/01/16 00:53:50;;;;;;;5.60;1.80;;;4.80;99.90;;;;;;5031815;28;20201;-61
2023/01/16 00:56:17;;;;;;;2.07;1.70;;;4.80;99.90;;;;;;5033461;28;20618;-60
2023/01/16 00:58:43;;;;;;;3.90;2.27;;;4.90;99.90;;;;;;5034686;28;20198;-60
2023/01/16 01:01:10;;;;;;;6.13;2.20;;;4.80;99.90;;;;;;5033377;28;20207;-59
2023/01/16 01:03:40;;;;;;;3.93;2.30;;;4.90;99.90;;;;;;5036292;28;20320;-60
2023/01/16 01:06:08;;;;;;;5.33;2.10;;;4.80;99.90;;;;;;5036117;28;20196;-60
2023/01/16 01:08:35;;;;;;;2.87;2.00;;;4.80;99.90;;;;;;5032911;28;20190;-60
2023/01/16 01:11:10;;;;;;;6.03;2.40;;;4.70;99.90;;;;;;5032892;28;20657;-60
2023/01/16 01:13:37;;;;;;;4.33;2.13;;;4.70;99.90;;;;;;5033053;28;20573;-60
2023/01/16 01:16:04;;;;;;;2.27;1.83;;;4.70;99.90;;;;;;5030911;28;20324;-59
2023/01/16 01:18:31;;;;;;;5.13;1.60;;;4.70;99.90;;;;;;5036413;28;20655;-60
2023/01/16 01:20:58;;;;;;;3.03;1.80;;;4.80;99.90;;;;;;5028470;28;20230;-60
2023/01/16 01:23:25;;;;;;;2.93;1.27;;;4.80;99.90;;;;;;5031688;28;20232;-60
2023/01/16 01:25:52;;;;;;;6.33;1.70;;;4.70;99.90;;;;;;5027870;28;20221;-60
2023/01/16 01:28:19;;;;;;;2.53;1.30;;;4.70;99.90;;;;;;5030896;28;20678;-59
2023/01/16 01:30:46;;;;;;;2.67;1.40;;;4.70;99.90;;;;;;5036464;28;20247;-61
2023/01/16 01:33:13;;;;;;;4.90;1.23;;;4.70;99.90;;;;;;5040084;28;20533;-59
2023/01/16 01:35:40;;;;;;;4.80;1.23;;;4.60;99.90;;;;;;5036189;28;20223;-60
2023/01/16 01:38:06;;;;;;;2.03;1.10;;;4.60;99.90;;;;;;5038654;28;20208;-61
2023/01/16 01:40:33;;;;;;;5.47;1.50;;;4.60;99.90;;;;;;5039534;28;20217;-60
2023/01/16 01:43:00;;;;;;;2.53;1.23;;;4.50;99.90;;;;;;5035761;28;20229;-60
2023/01/16 01:45:29;;;;;;;3.93;1.07;;;4.50;99.90;;;;;;5036377;28;20236;-59
2023/01/16 01:48:26;;;;;;;2.67;0.80;;;4.50;99.90;;;;;;5036045;28;20194;-60
2023/01/16 01:50:58;;;;;;;5.00;1.00;;;4.50;99.90;;;;;;5037284;28;20209;-60
2023/01/16 01:53:41;;;;;;;4.47;1.03;;;4.40;99.90;;;;;;5031407;28;20196;-60
2023/01/16 01:56:14;;;;;;;3.00;1.00;;;4.40;99.90;;;;;;5036968;28;20323;-60
2023/01/16 01:58:43;;;;;;;4.67;0.97;;;4.30;99.90;;;;;;5036809;28;20199;-61
2023/01/16 02:01:09;;;;;;;2.30;1.00;;;4.30;99.90;;;;;;5035257;28;20221;-60
2023/01/16 02:03:42;;;;;;;5.20;2.00;;;4.30;99.90;;;;;;5030396;28;20622;-59
2023/01/16 02:06:20;;;;;;;3.77;0.80;;;4.30;99.90;;;;;;5020357;28;20672;-59
2023/01/16 02:08:52;;;;;;;1.90;0.83;;;4.30;99.90;;;;;;5031487;28;20305;-59
2023/01/16 02:11:36;;;;;;;2.63;1.03;;;4.30;99.90;;;;;;5031204;28;22847;-60
2023/01/16 02:14:09;;;;;;;4.30;0.90;;;4.40;99.90;;;;;;5033242;28;20212;-64
2023/01/16 02:19:42;;;;;;;2.50;1.03;;;4.40;99.90;;;;;;5030735;28;20230;-60
2023/01/16 02:22:21;;;;;;;7.03;1.23;;;4.30;99.90;;;;;;5020086;28;20248;-60
2023/01/16 02:25:15;;;;;;;4.50;0.97;;;4.40;99.90;;;;;;5031569;28;20240;-60
2023/01/16 02:28:19;;;;;;;4.20;0.80;;;4.40;99.90;;;;;;5026016;28;20203;-61
2023/01/16 02:31:04;;;;;;;2.40;1.00;;;4.30;99.90;;;;;;5030938;28;20213;-61
2023/01/16 02:33:37;;;;;;;1.23;0.77;;;4.30;99.90;;;;;;5020840;28;20227;-60
2023/01/16 02:36:22;;;;;;;1.80;0.93;;;4.20;99.90;;;;;;5030617;28;20234;-60
2023/01/16 02:38:51;;;;;;;2.80;0.90;;;4.20;99.90;;;;;;5029492;28;20281;-60
2023/01/16 02:41:21;;;;;;;3.17;1.03;;;4.20;99.90;;;;;;5034568;28;20227;-60
2023/01/16 02:44:20;;;;;;;5.37;1.00;;;4.20;99.90;;;;;;5027789;28;20253;-65
2023/01/16 02:47:09;;;;;;;1.50;0.83;;;4.30;99.90;;;;;;5027017;28;20601;-60
2023/01/16 02:49:45;;;;;;;3.10;0.90;;;4.40;99.90;;;;;;5031267;28;20211;-63
2023/01/16 02:52:25;;;;;;;3.77;0.90;;;4.30;99.90;;;;;;5035332;28;20200;-63
2023/01/16 02:54:59;;;;;;;5.13;0.90;;;4.40;99.90;;;;;;5029870;28;20204;-60
2023/01/16 02:57:33;;;;;;;3.70;1.40;;;4.40;99.90;;;;;;5030678;28;20198;-61
2023/01/16 03:00:02;;;;;;;4.03;1.00;;;4.40;99.90;;;;;;5031937;28;20268;-60
2023/01/16 03:02:29;;;;;;;6.13;1.13;;;4.50;99.90;;;;;;5032171;28;20305;-60
2023/01/16 03:04:56;;;;;;;5.00;0.90;;;4.40;99.90;;;;;;5030550;28;20194;-61
2023/01/16 03:07:38;;;;;;;1.83;0.87;;;4.40;99.90;;;;;;5032645;28;20251;-60
2023/01/16 03:10:43;;;;;;;2.97;0.93;;;4.40;99.90;;;;;;5018416;28;20209;-60
2023/01/16 03:13:15;;;;;;;2.00;0.60;;;4.50;99.90;;;;;;5032455;28;20211;-60
2023/01/16 03:16:00;;;;;;;4.97;1.03;;;4.40;99.90;;;;;;5028276;28;20299;-60
2023/01/16 03:18:32;;;;;;;5.10;1.23;;;4.40;99.90;;;;;;5032313;28;20209;-60
2023/01/16 03:21:25;;;;;;;3.80;0.93;;;4.30;99.90;;;;;;5029074;28;20227;-60
2023/01/16 03:23:54;;;;;;;1.10;0.83;;;4.40;99.90;;;;;;5027228;28;20209;-60
2023/01/16 03:26:45;;;;;;;2.20;1.00;;;4.20;99.90;;;;;;5030690;28;20664;-61
2023/01/16 03:29:17;;;;;;;2.53;0.77;;;4.30;99.90;;;;;;5028521;28;20208;-61
2023/01/16 03:32:14;;;;;;;7.93;1.17;;;4.40;99.90;;;;;;5031670;28;20220;-59
2023/01/16 03:34:56;;;;;;;3.17;0.80;;;4.40;99.90;;;;;;5030771;28;20225;-61
2023/01/16 03:37:32;;;;;;;2.83;0.90;;;4.40;99.90;;;;;;5027471;28;20238;-60
2023/01/16 03:40:02;;;;;;;4.63;0.90;;;4.50;99.90;;;;;;5032055;28;22275;-60
2023/01/16 03:42:37;;;;;;;3.93;0.63;;;4.60;99.90;;;;;;5034506;28;21158;-61
2023/01/16 03:45:19;;;;;;;4.97;1.00;;;4.50;99.90;;;;;;5028971;28;20207;-60
2023/01/16 03:47:58;;;;;;;3.00;1.13;;;4.40;99.90;;;;;;5028406;28;20330;-60
2023/01/16 03:50:26;;;;;;;4.93;1.23;;;4.40;99.90;;;;;;5030770;28;20204;-59
2023/01/16 03:52:59;;;;;;;2.17;0.73;;;4.40;99.90;;;;;;5032686;28;21198;-60
2023/01/16 03:55:37;;;;;;;8.10;1.20;;;4.50;99.90;;;;;;5028193;28;20204;-60
2023/01/16 03:58:19;;;;;;;2.37;0.67;;;4.40;99.90;;;;;;5023487;28;20209;-60
2023/01/16 04:01:06;;;;;;;3.80;1.00;;;4.60;99.90;;;;;;5029940;28;20237;-60
2023/01/16 04:04:08;;;;;;;3.30;0.93;;;4.60;99.90;;;;;;5024771;28;20278;-60
2023/01/16 04:07:09;;;;;;;1.80;0.70;;;4.50;99.90;;;;;;5028701;28;20262;-61
2023/01/16 04:09:52;;;;;;;4.20;1.30;;;4.60;99.90;;;;;;5030478;28;20220;-60
2023/01/16 04:12:22;;;;;;;4.47;0.90;;;4.60;99.90;;;;;;5033219;28;20197;-60
2023/01/16 04:14:55;;;;;;;4.03;1.00;;;4.60;99.90;;;;;;5033829;28;20230;-60
2023/01/16 04:17:23;;;;;;;5.90;1.10;;;4.60;99.90;;;;;;5030756;28;20935;-60
2023/01/16 04:19:50;;;;;;;2.90;0.60;;;4.60;99.90;;;;;;5031503;28;20197;-59
2023/01/16 04:22:23;;;;;;;2.37;1.10;;;4.60;99.90;;;;;;5030694;28;20274;-60
2023/01/16 04:24:51;;;;;;;4.17;0.93;;;4.60;99.90;;;;;;5030781;28;20215;-59
2023/01/16 04:27:19;;;;;;;3.07;1.17;;;4.70;99.90;;;;;;5031632;28;20197;-61
2023/01/16 04:29:46;;;;;;;1.70;0.73;;;4.50;99.90;;;;;;5026053;28;20204;-61
2023/01/16 04:32:13;;;;;;;2.67;0.70;;;4.50;99.90;;;;;;5032903;28;20223;-60
2023/01/16 04:34:40;;;;;;;2.10;0.70;;;4.50;99.90;;;;;;5031540;28;20209;-60
2023/01/16 04:37:07;;;;;;;3.43;1.00;;;4.40;99.90;;;;;;5032283;28;20228;-59
2023/01/16 04:39:34;;;;;;;1.63;0.80;;;4.50;99.90;;;;;;5030610;28;20215;-60
2023/01/16 04:42:00;;;;;;;2.90;1.00;;;4.50;99.90;;;;;;5034029;28;20221;-60
2023/01/16 04:44:27;;;;;;;4.77;0.90;;;4.40;99.90;;;;;;5029843;28;20282;-61
2023/01/16 04:46:56;;;;;;;3.00;1.30;;;4.30;99.90;;;;;;5030635;28;20192;-61
2023/01/16 04:49:23;;;;;;;2.93;1.10;;;4.30;99.90;;;;;;5030258;28;20201;-61
2023/01/16 04:51:50;;;;;;;3.17;0.87;;;4.30;99.90;;;;;;5049447;28;20205;-60
2023/01/16 04:54:18;;;;;;;7.37;1.10;;;4.40;99.90;;;;;;5031846;28;20232;-60
2023/01/16 04:56:45;;;;;;;4.10;1.00;;;4.40;99.90;;;;;;5033060;28;20582;-60
2023/01/16 04:59:15;;;;;;;5.63;1.00;;;4.30;99.90;;;;;;5030899;28;20201;-61
2023/01/16 05:01:42;;;;;;;1.03;0.90;;;4.30;99.90;;;;;;5031131;28;20668;-61
2023/01/16 05:04:11;;;;;;;2.53;1.30;;;4.40;99.90;;;;;;5035712;28;20204;-60
2023/01/16 05:06:38;;;;;;;4.27;1.20;;;4.50;99.90;;;;;;5037138;28;20287;-60
2023/01/16 05:09:05;;;;;;;2.50;0.70;;;4.40;99.90;;;;;;5035718;28;20198;-60
2023/01/16 05:11:33;;;;;;;2.37;1.13;;;4.50;99.90;;;;;;5036498;28;20652;-63
2023/01/16 05:14:00;;;;;;;6.37;1.30;;;4.50;99.90;;;;;;5036306;28;20296;-60
2023/01/16 05:16:27;;;;;;;2.27;1.10;;;4.50;99.90;;;;;;5037884;28;20895;-61
2023/01/16 05:18:54;;;;;;;5.60;1.03;;;4.40;99.90;;;;;;5032538;28;20233;-60
2023/01/16 05:21:21;;;;;;;3.53;1.10;;;4.50;99.90;;;;;;5034360;28;20212;-61
2023/01/16 05:23:47;;;;;;;3.67;0.90;;;4.50;99.90;;;;;;5035423;28;20199;-62
2023/01/16 05:26:14;;;;;;;2.10;0.60;;;4.50;99.90;;;;;;5033810;28;20188;-61
2023/01/16 05:28:41;;;;;;;2.00;1.00;;;4.50;99.90;;;;;;5034078;28;20206;-61
2023/01/16 05:31:08;;;;;;;3.70;1.03;;;4.60;99.90;;;;;;5034089;28;20203;-62
2023/01/16 05:33:34;;;;;;;5.23;1.00;;;4.60;99.90;;;;;;5034772;28;20241;-61
2023/01/16 05:36:02;;;;;;;1.97;1.10;;;4.60;99.90;;;;;;5032682;28;20224;-61
2023/01/16 05:38:28;;;;;;;3.10;1.10;;;4.70;99.90;;;;;;5036493;28;20205;-61
2023/01/16 05:40:55;;;;;;;3.03;1.10;;;4.70;99.90;;;;;;5033376;28;20270;-60
2023/01/16 05:43:24;;;;;;;2.73;0.87;;;4.90;99.90;;;;;;5034756;28;20231;-60
2023/01/16 05:45:50;;;;;;;4.93;1.23;;;4.90;99.90;;;;;;5034245;28;20663;-60
2023/01/16 05:48:17;;;;;;;3.53;1.07;;;4.90;99.90;;;;;;5035918;28;20218;-60
2023/01/16 05:50:44;;;;;;;5.80;0.90;;;4.90;99.90;;;;;;5035307;28;20199;-60
2023/01/16 05:53:11;;;;;;;2.63;0.90;;;4.90;99.90;;;;;;5035387;28;20548;-60
2023/01/16 05:55:46;;;;;;;3.57;1.20;;;4.90;99.90;;;;;;5034103;28;20628;-61
2023/01/16 05:58:14;;;;;;;7.37;1.27;;;4.90;99.90;;;;;;5029608;28;20209;-61
2023/01/16 06:00:41;;;;;;;4.00;1.67;;;4.90;99.90;;;;;;5032719;28;20294;-60
2023/01/16 06:03:08;;;;;;;5.40;0.97;;;4.90;99.90;;;;;;5034243;28;20197;-60
2023/01/16 06:05:35;;;;;;;3.37;0.80;;;4.90;99.90;;;;;;5036079;28;20553;-60
2023/01/16 06:08:02;;;;;;;3.00;1.10;;;4.90;99.90;;;;;;5032501;28;20283;-60
2023/01/16 06:10:29;;;;;;;4.00;0.70;;;4.90;99.90;;;;;;5032877;28;20200;-60
2023/01/16 06:12:56;;;;;;;4.57;1.23;;;5.00;99.90;;;;;;5037411;28;20557;-60
2023/01/16 06:15:23;;;;;;;4.77;1.00;;;5.00;99.90;;;;;;5029250;28;22341;-60
2023/01/16 06:17:52;;;;;;;5.53;0.93;;;5.00;99.90;;;;;;5032382;28;20518;-60
2023/01/16 06:20:19;;;;;;;5.40;1.10;;;4.90;99.90;;;;;;5031503;28;20283;-60
2023/01/16 06:22:45;;;;;;;7.03;1.10;;;5.00;99.90;;;;;;5032415;28;20221;-60
2023/01/16 06:25:12;;;;;;;2.40;0.60;;;5.00;99.90;;;;;;5033954;28;20205;-60
2023/01/16 06:27:39;;;;;;;1.43;0.73;;;5.00;99.90;;;;;;5029909;28;20720;-60
2023/01/16 06:30:07;;;;;;;2.33;0.90;;;5.00;99.90;;;;;;5022994;28;20346;-62
2023/01/16 06:32:34;;;;;;;4.10;0.87;;;5.00;99.90;;;;;;5029219;28;20647;-61
2023/01/16 06:35:01;;;;;;;5.27;1.27;;;5.00;99.90;;;;;;5034275;28;20228;-60
2023/01/16 06:37:28;;;;;;;3.70;1.10;;;5.00;99.90;;;;;;5035202;28;20710;-60
2023/01/16 06:39:56;;;;;;;6.47;1.00;;;4.90;99.90;;;;;;5033973;28;20205;-60
2023/01/16 06:42:23;;;;;;;4.73;0.83;;;4.90;99.90;;;;;;5030729;28;20220;-60
2023/01/16 06:44:50;;;;;;;4.03;0.90;;;4.90;99.90;;;;;;5032705;28;20232;-60
2023/01/16 06:47:17;;;;;;;4.20;0.80;;;4.90;99.90;;;;;;5033242;28;20284;-61
2023/01/16 06:49:44;;;;;;;2.57;0.80;;;4.90;99.90;;;;;;5033410;28;20189;-60
2023/01/16 06:52:10;;;;;;;6.03;0.87;;;5.00;99.90;;;;;;5036841;28;20216;-63
2023/01/16 06:54:37;;;;;;;1.40;0.60;;;5.00;99.90;;;;;;5039748;28;20212;-61
2023/01/16 06:57:04;;;;;;;5.10;0.93;;;5.00;99.90;;;;;;5039508;28;20205;-61
2023/01/16 06:59:30;;;;;;;2.97;0.93;;;4.90;99.90;;;;;;5035296;28;20215;-61
2023/01/16 07:01:57;;;;;;;2.87;0.70;;;4.90;99.90;;;;;;5024556;28;20224;-61
2023/01/16 07:04:24;;;;;;;2.37;0.73;;;4.90;99.90;;;;;;5038128;28;20208;-61
2023/01/16 07:06:51;;;;;;;2.10;0.80;;;4.90;99.90;;;;;;5035879;28;20233;-62
2023/01/16 07:09:19;;;;;;;3.07;0.80;;;4.90;99.90;;;;;;5039105;28;20197;-60
2023/01/16 07:11:47;;;;;;;3.57;0.70;;;4.90;99.90;;;;;;5039351;28;20254;-61
2023/01/16 07:22:38;;;;;;;1.90;1.10;;;4.80;99.90;;;;;;5037954;28;20219;-61
2023/01/16 07:25:14;;;;;;;1.33;0.50;;;4.90;99.90;;;;;;5036947;28;20218;-60
2023/01/16 07:27:42;;;;;;;1.20;0.90;;;4.90;99.90;;;;;;5033250;28;20198;-60
2023/01/16 07:30:11;;;;;;;3.00;0.80;;;4.90;99.90;;;;;;5036840;28;20753;-60
2023/01/16 07:32:38;;;;;;;5.07;1.00;;;4.90;99.90;;;;;;5038192;28;20616;-61
2023/01/16 07:35:07;;;;;;;3.77;1.10;;;4.90;99.90;;;;;;5036331;28;20303;-60
2023/01/16 07:37:34;;;;;;;2.53;0.60;;;4.90;99.90;;;;;;5036518;28;20307;-62
2023/01/16 07:40:00;;;;;;;1.80;0.70;;;4.90;99.90;;;;;;5037770;28;20711;-62
2023/01/16 07:42:27;;;;;;;2.53;0.60;;;4.80;99.90;;;;;;5037387;28;20224;-61
2023/01/16 07:44:54;;;;;;;1.07;0.40;;;4.90;99.90;;;;;;5037090;28;20238;-60
2023/01/16 07:47:21;;;;;;;1.67;0.50;;;4.90;99.90;;;;;;5030033;28;20667;-60
2023/01/16 07:49:48;;;;;;;0.60;0.50;;;4.90;99.90;;;;;;5027284;28;20680;-61
2023/01/16 07:52:16;;;;;;;3.13;0.97;;;4.90;99.90;;;;;;5031645;28;20295;-60
2023/01/16 07:54:44;;;;;;;1.43;0.60;;;4.90;99.90;;;;;;5031187;28;20226;-60
2023/01/16 07:57:10;;;;;;;1.80;0.90;;;4.90;99.90;;;;;;4664554;28;10000408;-60
2023/01/16 07:59:37;;;;;;;3.70;1.00;;;4.90;99.90;;;;;;5015327;28;20258;-60
2023/01/16 08:02:04;;;;;;;1.97;0.40;;;4.90;99.90;;;;;;5022687;28;20222;-60
2023/01/16 08:04:31;;;;;;;2.77;0.80;;;4.90;99.90;;;;;;5011177;28;20223;-61
2023/01/16 08:06:58;;;;;;;2.17;0.90;;;4.90;99.90;;;;;;5021162;28;20247;-60
2023/01/16 08:09:25;;;;;;;2.40;0.70;;;4.90;99.90;;;;;;5013622;28;20236;-60
2023/01/16 08:11:52;;;;;;;2.87;1.33;;;4.90;99.90;;;;;;5014274;28;20232;-60
2023/01/16 08:14:18;;;;;;;1.20;0.83;;;4.90;99.90;;;;;;5023285;28;20707;-61
2023/01/16 08:16:45;;;;;;;3.60;0.70;;;4.90;99.90;;;;;;5019619;28;20216;-60
2023/01/16 08:19:12;;;;;;;3.30;0.80;;;5.00;99.90;;;;;;5018669;28;21633;-61
2023/01/16 08:21:39;;;;;;;2.10;0.60;;;4.90;99.90;;;;;;5023884;28;20258;-60
2023/01/16 08:24:06;;;;;;;1.83;0.80;;;4.90;99.90;;;;;;5010140;28;20196;-60
2023/01/16 08:26:33;;;;;;;1.57;0.50;;;5.00;99.90;;;;;;5016758;28;20738;-62
2023/01/16 08:29:02;;;;;;;2.60;0.90;;;4.90;99.90;;;;;;5015813;28;20275;-62
2023/01/16 08:31:29;;;;;;;3.07;1.27;;;4.90;99.90;;;;;;5019167;28;20218;-62
2023/01/16 08:33:56;;;;;;;1.70;0.90;;;4.90;99.90;;;;;;5019428;28;20703;-61
2023/01/16 08:36:25;;;;;;;2.40;0.87;;;4.90;99.90;;;;;;5016785;28;20624;-61
2023/01/16 08:38:52;;;;;;;2.80;0.70;;;4.90;99.90;;;;;;5006526;28;20319;-63
2023/01/16 08:52:45;;;;;;;2.10;0.83;;;5.00;99.90;;;;;;5018823;28;20303;-61
2023/01/16 08:55:12;;;;;;;1.60;0.80;;;5.00;99.90;;;;;;5011867;28;20210;-62
2023/01/16 08:57:39;;;;;;;1.03;0.77;;;5.10;99.90;;;;;;5020982;28;20205;-65
2023/01/16 09:00:07;;;;;;;1.03;0.53;;;5.00;99.90;;;;;;5029261;28;20295;-63
2023/01/16 09:02:36;;;;;;;3.23;0.57;;;5.10;99.90;;;;;;5026228;28;20244;-60
2023/01/16 09:05:03;;;;;;;2.00;0.63;;;5.10;99.90;;;;;;5024619;28;20192;-61
2023/01/16 09:07:30;;;;;;;2.27;0.80;;;5.10;99.90;;;;;;5025917;28;20219;-61
2023/01/16 09:09:57;;;;;;;6.37;1.00;;;5.10;99.90;;;;;;5025994;28;21264;-61
2023/01/16 09:15:09;;;;;;;1.93;0.90;;;5.10;99.90;;;;;;5024291;28;20288;-60
2023/01/16 09:17:36;;;;;;;1.17;0.40;;;5.10;99.90;;;;;;5025979;28;20213;-62
2023/01/16 09:20:03;;;;;;;1.67;0.73;;;5.10;99.90;;;;;;5025009;28;20288;-62
2023/01/16 09:22:30;;;;;;;2.40;0.87;;;5.10;99.90;;;;;;5021996;28;20296;-61
2023/01/16 09:24:56;;;;;;;0.80;0.70;;;5.10;99.90;;;;;;5014850;28;20273;-61
2023/01/16 09:27:24;;;;;;;1.17;0.80;;;5.10;99.90;;;;;;5021921;28;20212;-61
2023/01/16 09:29:51;;;;;;;1.10;0.80;;;5.00;99.90;;;;;;5013280;28;20205;-61
2023/01/16 09:32:19;;;;;;;2.20;0.60;;;5.10;99.90;;;;;;5020003;28;20214;-61
2023/01/16 09:34:46;;;;;;;0.47;0.40;;;5.00;99.90;;;;;;5024059;28;20658;-61
2023/01/16 09:37:13;;;;;;;1.00;0.40;;;5.10;99.90;;;;;;5025678;28;20220;-61
2023/01/16 09:39:40;;;;;;;2.13;0.80;;;5.00;99.90;;;;;;5025777;28;20206;-61
2023/01/16 09:45:11;;;;;;;0.67;0.47;;;5.00;99.90;;;;;;5027404;28;20236;-61
2023/01/16 09:47:44;;;;;;;1.30;0.57;;;4.90;99.90;;;;;;5026131;28;20292;-63
2023/01/16 09:50:26;;;;;;;0.67;0.50;;;5.00;99.90;;;;;;5025392;28;20203;-62
2023/01/16 09:58:36;;;;;;;0.40;0.30;;;5.20;99.90;;;;;;5028900;28;20211;-62
2023/01/16 10:01:03;;;;;;;2.33;0.50;;;5.10;99.90;;;;;;5032946;28;20195;-61
2023/01/16 10:03:30;;;;;;;0.80;0.40;;;5.20;99.90;;;;;;5036531;28;20847;-62
2023/01/16 10:06:17;;;;;;;0.70;0.50;;;5.20;99.90;;;;;;5030864;28;20278;-62
2023/01/16 10:08:56;;;;;;;0.40;0.40;;;5.30;99.90;;;;;;5029396;28;20293;-62
2023/01/16 10:11:45;;;;;;;0.70;0.40;;;5.30;99.90;;;;;;5024795;28;20601;-61
2023/01/16 10:14:43;;;;;;;0.70;0.50;;;5.30;99.90;;;;;;5029060;28;20321;-59
2023/01/16 10:17:17;;;;;;;1.40;0.40;;;5.30;99.90;;;;;;5023822;28;20307;-60
2023/01/16 10:19:56;;;;;;;2.30;0.43;;;5.30;99.90;;;;;;5046443;28;20250;-60
2023/01/16 10:22:41;;;;;;;0.77;0.37;;;5.30;99.90;;;;;;5032581;28;20246;-58
2023/01/16 10:25:08;;;;;;;0.87;0.53;;;5.40;99.90;;;;;;5030084;28;21418;-59
2023/01/16 10:27:45;;;;;;;0.80;0.30;;;5.40;99.90;;;;;;5028283;28;20225;-60
2023/01/16 10:30:29;;;;;;;1.30;0.50;;;5.50;99.90;;;;;;5028097;28;20207;-61
2023/01/16 10:33:03;;;;;;;0.57;0.40;;;5.60;99.90;;;;;;5036249;28;20287;-63
2023/01/16 10:35:34;;;;;;;1.90;0.33;;;5.80;99.90;;;;;;5030297;28;20665;-61
2023/01/16 10:38:25;;;;;;;0.43;0.33;;;6.10;99.90;;;;;;5029813;28;20696;-60
2023/01/16 10:40:54;;;;;;;0.73;0.37;;;6.10;99.90;;;;;;5021551;28;20202;-59
2023/01/16 10:49:27;;;;;;;0.83;0.30;;;6.10;1.00;;;;;;5017125;28;20617;-59
2023/01/16 10:52:01;;;;;;;0.63;0.40;;;6.20;1.00;;;;;;5024783;28;20292;-61
2023/01/16 10:54:28;;;;;;;1.63;0.50;;;6.20;1.00;;;;;;5021855;28;20201;-59
2023/01/16 10:56:57;;;;;;;1.37;0.40;;;6.10;99.90;;;;;;5027888;28;20726;-58
2023/01/16 10:59:25;;;;;;;0.30;0.30;;;6.10;29.70;;;;;;5028383;28;20668;-64
2023/01/16 11:02:03;;;;;;;0.60;0.50;;;6.20;1.00;;;;;;5027726;28;20230;-59
2023/01/16 11:04:35;;;;;;;0.67;0.40;;;6.10;1.00;;;;;;5032273;28;20193;-62
2023/01/16 11:07:19;;;;;;;0.33;0.20;;;6.20;85.00;;;;;;5031316;28;20275;-62
2023/01/16 11:09:47;;;;;;;1.03;0.40;;;6.10;1.00;;;;;;5030185;28;20209;-59
2023/01/16 11:18:38;;;;;;;1.07;0.47;;;6.00;1.00;;;;;;5032216;28;20226;-63
2023/01/16 11:21:30;;;;;;;3.07;0.50;;;6.20;1.00;;;;;;5032252;28;20204;-61
2023/01/16 11:24:10;;;;;;;1.43;0.40;;;6.30;1.00;;;;;;5037253;28;20246;-62
2023/01/16 11:26:37;;;;;;;2.90;1.33;;;6.20;99.90;;;;;;5032017;28;20216;-61
2023/01/16 11:29:04;;;;;;;0.73;0.53;;;6.20;99.90;;;;;;5036352;28;20227;-61
2023/01/16 11:31:31;;;;;;;0.77;0.40;;;6.20;99.90;;;;;;5033978;28;20233;-60
2023/01/16 11:34:10;;;;;;;2.40;0.50;;;6.20;1.00;;;;;;5035659;28;20204;-59
2023/01/16 11:36:38;;;;;;;1.53;0.47;;;6.20;1.00;;;;;;5030598;28;20235;-59
2023/01/16 11:39:15;;;;;;;0.30;0.30;;;6.30;1.00;;;;;;5035805;28;20246;-59
2023/01/16 11:41:47;;;;;;;1.40;0.40;;;6.30;99.90;;;;;;5031450;28;20325;-60
2023/01/16 11:47:16;;;;;;;1.17;0.47;;;6.30;1.00;;;;;;5032917;28;20288;-60
2023/01/16 11:49:51;;;;;;;0.47;0.33;;;6.30;1.00;;;;;;5032401;28;20211;-61
2023/01/16 11:52:30;;;;;;;1.70;0.37;;;6.40;99.90;;;;;;5032245;28;20208;-62
2023/01/16 11:55:00;;;;;;;0.70;0.30;;;6.50;1.00;;;;;;5036961;28;20267;-63
2023/01/16 11:57:37;;;;;;;1.10;0.30;;;6.50;99.90;;;;;;5030907;28;20255;-62
2023/01/16 12:00:28;;;;;;;0.47;0.17;;;6.40;45.80;;;;;;5034724;28;20298;-62
2023/01/16 12:03:29;;;;;;;1.27;0.43;;;6.40;99.90;;;;;;5036549;28;20217;-62
2023/01/16 12:06:07;;;;;;;1.03;0.63;;;6.40;3.00;;;;;;5033565;28;20208;-63
2023/01/16 12:09:05;;;;;;;0.30;0.20;;;6.50;99.90;;;;;;5031386;28;20657;-61
2023/01/16 12:11:42;;;;;;;0.50;0.50;;;6.50;1.00;;;;;;5030681;28;20241;-61
2023/01/16 12:14:47;;;;;;;0.70;0.40;;;6.40;1.00;;;;;;5031718;28;20203;-62
2023/01/16 12:17:17;;;;;;;0.53;0.40;;;6.50;99.90;;;;;;4996105;28;20315;-66
2023/01/16 12:20:08;;;;;;;0.40;0.20;;;6.50;1.00;;;;;;5035312;28;20638;-62
2023/01/16 12:23:01;;;;;;;0.90;0.50;;;6.50;99.90;;;;;;5034798;28;20271;-61
2023/01/16 12:25:50;;;;;;;0.70;0.50;;;6.50;1.00;;;;;;5031169;28;20210;-61
2023/01/16 12:28:29;;;;;;;1.23;0.50;;;6.30;1.00;;;;;;5034215;28;20610;-63
2023/01/16 12:31:38;;;;;;;0.50;0.40;;;6.50;19.30;;;;;;5031311;28;20227;-62
2023/01/16 12:34:34;;;;;;;0.40;0.40;;;6.40;1.00;;;;;;5037486;28;20570;-61
2023/01/16 12:37:13;;;;;;;0.43;0.30;;;6.40;1.00;;;;;;5031021;28;20233;-61
2023/01/16 12:39:52;;;;;;;0.33;0.27;;;6.40;1.00;;;;;;5030324;28;20195;-62
2023/01/16 12:45:19;;;;;;;1.37;0.40;;;6.50;1.00;;;;;;5032339;28;20235;-62
2023/01/16 12:47:54;;;;;;;1.10;0.37;;;6.40;19.40;;;;;;5030501;28;20659;-62
2023/01/16 12:50:55;;;;;;;1.43;0.50;;;6.50;3.90;;;;;;5035431;28;20235;-64
2023/01/16 12:53:31;;;;;;;1.00;0.40;;;6.50;99.90;;;;;;5029354;28;20207;-62
2023/01/16 12:56:32;;;;;;;0.93;0.60;;;6.50;99.90;;;;;;5028633;28;20219;-62
2023/01/16 12:59:31;;;;;;;0.93;0.57;;;6.50;99.90;;;;;;5028115;28;20211;-62
2023/01/16 13:02:17;;;;;;;0.90;0.50;;;6.30;99.90;;;;;;5012061;28;20213;-60
2023/01/16 13:05:00;;;;;;;0.50;0.33;;;6.50;99.90;;;;;;5032072;28;20203;-61
2023/01/16 13:07:34;;;;;;;1.30;0.50;;;6.40;1.00;;;;;;5030963;28;20639;-62
2023/01/16 13:15:38;;;;;;;0.60;0.40;;;6.50;99.90;;;;;;5031568;28;20208;-61
2023/01/16 13:18:17;;;;;;;1.33;0.47;;;6.40;96.10;;;;;;5031475;28;20243;-61
2023/01/16 13:20:49;;;;;;;0.70;0.40;;;6.50;1.00;;;;;;5032520;28;20205;-64
2023/01/16 13:23:39;;;;;;;0.60;0.30;;;6.50;1.00;;;;;;5033216;28;20220;-61
2023/01/16 13:26:10;;;;;;;1.20;0.40;;;6.50;99.90;;;;;;5032593;28;20206;-61
2023/01/16 13:29:07;;;;;;;0.40;0.30;;;6.50;99.90;;;;;;5035200;28;20232;-62
2023/01/16 13:31:53;;;;;;;0.50;0.30;;;6.40;99.90;;;;;;5033688;28;20208;-64
2023/01/16 13:34:34;;;;;;;0.60;0.60;;;6.50;99.90;;;;;;5021700;28;20655;-61
2023/01/16 13:37:41;;;;;;;0.30;0.20;;;6.50;1.00;;;;;;5029565;28;20224;-61
2023/01/16 13:40:51;;;;;;;0.50;0.30;;;6.60;1.00;;;;;;5035238;28;20305;-62
2023/01/16 13:46:13;;;;;;;0.20;0.10;;;6.60;1.00;;;;;;5036308;28;20292;-62
2023/01/16 13:48:40;;;;;;;0.47;0.30;;;6.60;1.00;;;;;;5036608;28;20207;-61
2023/01/16 13:51:16;;;;;;;0.60;0.30;;;6.60;1.00;;;;;;5017707;28;20195;-61
2023/01/16 13:53:50;;;;;;;0.20;0.20;;;6.60;1.00;;;;;;5039880;28;20270;-61
2023/01/16 13:56:20;;;;;;;1.67;0.40;;;6.60;99.90;;;;;;5026054;28;20704;-61
2023/01/16 13:58:54;;;;;;;0.40;0.33;;;6.70;99.90;;;;;;5035275;28;20287;-61
2023/01/16 14:01:31;;;;;;;0.33;0.20;;;6.50;99.90;;;;;;5034588;28;20710;-61
2023/01/16 14:04:16;;;;;;;0.50;0.40;;;6.60;1.00;;;;;;5047269;28;20212;-60
2023/01/16 14:10:16;;;;;;;0.57;0.50;;;6.40;1.00;;;;;;5036462;28;20219;-61
2023/01/16 14:13:13;;;;;;;1.07;0.70;;;6.50;99.90;;;;;;5027339;28;20287;-62
2023/01/16 14:18:45;;;;;;;0.97;0.40;;;6.40;99.90;;;;;;5030665;28;20249;-61
2023/01/16 14:21:38;;;;;;;1.17;0.40;;;6.60;1.00;;;;;;5030444;28;20207;-62
2023/01/16 14:24:14;;;;;;;0.50;0.40;;;6.50;1.00;;;;;;5017389;28;20287;-61
2023/01/16 14:26:53;;;;;;;0.63;0.27;;;6.50;1.00;;;;;;5027263;28;20732;-62
2023/01/16 14:29:26;;;;;;;0.33;0.27;;;6.50;99.90;;;;;;5035673;28;20242;-60
2023/01/16 14:32:05;;;;;;;0.30;0.30;;;6.50;1.00;;;;;;5028705;28;20278;-61
2023/01/16 14:34:49;;;;;;;0.87;0.33;;;6.50;99.90;;;;;;5035790;28;20200;-61
2023/01/16 14:37:27;;;;;;;0.40;0.30;;;6.40;1.00;;;;;;5030424;28;20233;-61